Greenfield, Missouri
Current Conditions -  °F | °C
As of 5:52 PM on Monday 24 Nov 2014 (Local Time) from KSGF Reporting Station
Clear Clear  
Wind Chill:   Ceiling: Unl
Heat Index:   Visibility: 10mi
Dew Point: -3°   Wind: 10mph
Humidity: 51%   Direction: 280°W
Pressure: 29.93"   Gusts: NA
Location:  37.42°N, 93.84°W
Report Text: KSGF 242352Z 28009KT 10SM CLR 06/M03 A2993 RMK AO2 SLP142 T00611033 10094 20061 53030
Loading
Personal Weather Stations






























Interactive Weather Map New forecast layout! Learn more

10-Day Weather Forecast

Advertisements
Track Severe Weather on mobile